Iona, Idaho
Current Conditions -  °F | °C
As of 4:53 AM on Friday 21 Nov 2014 (Local Time) from KIDA Reporting Station
Clear Clear  
Wind Chill: 10°   Ceiling: Unl
Heat Index: 18°   Visibility: 9mi
Dew Point: 15°   Wind: 6mph
Humidity: 88%   Direction: 360°N
Pressure: 30.03"   Gusts: NA
Location:  43.53°N, 111.93°W
Report Text: KIDA 211153Z AUTO 36005KT 9SM CLR M08/M09 A3003 RMK AO2 SLP202 I6000 T10781094 11033 21100 55002
Loading
Personal Weather Stations






























Interactive Weather Map New forecast layout! Learn more

10-Day Weather Forecast

Advertisements
Track Severe Weather on mobile